createdAt,value
2018-11-10T00:00:36.494Z,28.92
2018-11-10T00:03:05.552Z,22.80
2018-11-10T00:05:34.208Z,8.38
2018-11-10T00:08:02.451Z,5.97
2018-11-10T00:10:30.690Z,3.80
2018-11-10T00:12:58.891Z,7.87
2018-11-10T00:15:27.275Z,4.67
2018-11-10T00:17:55.854Z,4.97
2018-11-10T00:20:24.198Z,3.70
2018-11-10T00:22:52.459Z,8.20
2018-11-10T00:25:20.657Z,7.05
2018-11-10T00:27:48.858Z,16.97
2018-11-10T00:30:18.549Z,6.28
2018-11-10T00:32:47.242Z,7.75
2018-11-10T00:35:15.828Z,6.22
2018-11-10T00:37:44.183Z,9.55
2018-11-10T00:40:13.924Z,9.08
2018-11-10T00:42:42.778Z,8.83
2018-11-10T00:45:11.030Z,7.00
2018-11-10T00:47:39.406Z,5.60
2018-11-10T00:50:08.050Z,5.72
2018-11-10T00:52:37.123Z,10.38
2018-11-10T00:55:05.366Z,13.58
2018-11-10T00:57:33.611Z,6.92
2018-11-10T01:00:01.997Z,7.92
2018-11-10T01:02:30.273Z,8.05
2018-11-10T01:04:58.492Z,12.03
2018-11-10T01:07:26.765Z,10.40
2018-11-10T01:09:55.302Z,10.03
2018-11-10T01:12:23.660Z,7.78
2018-11-10T01:14:52.010Z,5.92
2018-11-10T01:17:20.239Z,13.70
2018-11-10T01:19:48.566Z,9.68
2018-11-10T01:22:16.842Z,8.60
2018-11-10T01:24:45.050Z,8.73
2018-11-10T01:27:13.244Z,15.15
2018-11-10T01:29:41.457Z,8.93
2018-11-10T01:32:09.723Z,8.38
2018-11-10T01:34:37.923Z,14.23
2018-11-10T01:37:06.130Z,10.58
2018-11-10T01:39:34.357Z,12.33
2018-11-10T01:42:02.566Z,26.73
2018-11-10T01:44:31.258Z,16.80
2018-11-10T01:46:59.470Z,13.45
2018-11-10T01:49:27.890Z,31.52
2018-11-10T01:51:56.499Z,13.08
2018-11-10T01:54:24.846Z,11.57
2018-11-10T01:56:53.060Z,12.63
2018-11-10T01:59:21.806Z,23.77
2018-11-10T02:01:50.082Z,11.68
2018-11-10T02:04:18.295Z,5.65
2018-11-10T02:06:47.092Z,9.63
2018-11-10T02:09:15.784Z,11.30
2018-11-10T02:11:44.017Z,9.38
2018-11-10T02:14:12.223Z,11.03
2018-11-10T02:16:40.430Z,17.60
2018-11-10T02:19:08.654Z,11.90
2018-11-10T02:21:37.448Z,18.00
2018-11-10T02:24:06.297Z,12.58
2018-11-10T02:26:34.515Z,9.83
2018-11-10T02:29:02.767Z,8.53
2018-11-10T02:31:31.039Z,7.12
2018-11-10T02:33:59.535Z,10.05
2018-11-10T02:36:27.996Z,8.88
2018-11-10T02:38:56.283Z,8.33
2018-11-10T02:41:24.499Z,7.40
2018-11-10T02:43:52.723Z,11.75
2018-11-10T02:46:21.434Z,9.60
2018-11-10T02:48:49.645Z,9.50
2018-11-10T02:51:17.854Z,7.00
2018-11-10T02:53:46.314Z,6.10
2018-11-10T02:56:14.570Z,10.58
2018-11-10T02:58:43.226Z,5.97
2018-11-10T03:01:11.446Z,5.20
2018-11-10T03:03:40.058Z,5.00
2018-11-10T03:06:08.271Z,12.82
2018-11-10T03:08:36.498Z,8.08
2018-11-10T03:11:05.502Z,3.67
2018-11-10T03:13:33.706Z,5.90
2018-11-10T03:16:02.805Z,3.72
2018-11-10T03:18:31.150Z,4.50
2018-11-10T03:20:59.428Z,3.00
2018-11-10T03:23:27.629Z,3.20
2018-11-10T03:25:55.982Z,3.62
2018-11-10T03:28:24.202Z,5.12
2018-11-10T03:30:52.408Z,3.33
2018-11-10T03:33:20.824Z,3.72
2018-11-10T03:35:49.046Z,4.70
2018-11-10T03:38:17.239Z,6.62
2018-11-10T03:40:45.439Z,3.62
2018-11-10T03:43:13.746Z,2.60
2018-11-10T03:45:41.949Z,9.10
2018-11-10T03:48:10.154Z,10.13
2018-11-10T03:50:38.511Z,3.80
2018-11-10T03:53:06.722Z,2.90
2018-11-10T03:55:34.930Z,5.70
2018-11-10T03:58:03.134Z,5.40
2018-11-10T04:00:31.374Z,4.78
2018-11-10T04:02:59.715Z,5.10
2018-11-10T04:05:28.375Z,3.55
2018-11-10T04:07:56.627Z,3.05
2018-11-10T04:10:24.829Z,2.60
2018-11-10T04:12:53.034Z,2.42
2018-11-10T04:15:21.307Z,2.40
2018-11-10T04:17:49.514Z,9.43
2018-11-10T04:20:17.716Z,3.27
2018-11-10T04:22:45.918Z,4.33
2018-11-10T04:25:14.544Z,3.27
2018-11-10T04:27:42.755Z,3.20
2018-11-10T04:30:11.182Z,21.30
2018-11-10T04:32:39.439Z,2.60
2018-11-10T04:35:07.870Z,1.17
2018-11-10T04:37:36.430Z,1.67
2018-11-10T04:40:05.497Z,6.28
2018-11-10T04:42:34.109Z,1.57
2018-11-10T04:45:02.459Z,2.22
2018-11-10T04:47:30.662Z,1.55
2018-11-10T04:49:58.961Z,1.72
2018-11-10T04:52:27.156Z,1.67
2018-11-10T04:54:55.663Z,1.72
2018-11-10T04:57:23.874Z,1.92
2018-11-10T04:59:52.118Z,2.10
2018-11-10T05:02:20.394Z,2.75
2018-11-10T05:04:48.642Z,1.30
2018-11-10T05:07:16.942Z,5.47
2018-11-10T05:09:45.158Z,1.50
2018-11-10T05:12:13.366Z,3.08
2018-11-10T05:14:41.573Z,1.90
2018-11-10T05:17:10.391Z,1.32
2018-11-10T05:19:38.598Z,2.85
2018-11-10T05:22:07.258Z,3.42
2018-11-10T05:24:35.726Z,4.47
2018-11-10T05:27:03.982Z,3.50
2018-11-10T05:29:32.210Z,3.98
2018-11-10T05:32:00.534Z,1.40
2018-11-10T05:34:28.746Z,7.80
2018-11-10T05:36:57.005Z,4.35
2018-11-10T05:39:25.423Z,6.17
2018-11-10T05:41:53.630Z,17.00
2018-11-10T05:44:21.846Z,15.15
2018-11-10T05:46:50.071Z,11.40
2018-11-10T05:49:18.798Z,4.83
2018-11-10T05:51:47.007Z,7.42
2018-11-10T05:54:15.252Z,6.72
2018-11-10T05:56:43.454Z,3.45
2018-11-10T05:59:11.663Z,3.35
2018-11-10T06:01:40.275Z,2.37
2018-11-10T06:04:08.475Z,3.72
2018-11-10T06:06:36.822Z,1.85
2018-11-10T06:09:07.108Z,6.12
2018-11-10T06:11:35.402Z,2.72
2018-11-10T06:14:03.620Z,4.92
2018-11-10T06:16:31.832Z,10.82
2018-11-10T06:19:00.204Z,39.10
2018-11-10T06:21:28.544Z,16.95
2018-11-10T06:23:56.783Z,10.48
2018-11-10T06:26:24.986Z,12.35
2018-11-10T06:28:53.391Z,6.08
2018-11-10T06:31:22.058Z,8.00
2018-11-10T06:33:50.295Z,8.23
2018-11-10T06:36:18.579Z,10.13
2018-11-10T06:38:47.266Z,5.62
2018-11-10T06:41:15.568Z,9.90
2018-11-10T06:43:44.034Z,6.80
2018-11-10T06:46:12.291Z,6.30
2018-11-10T06:48:41.186Z,7.87
2018-11-10T06:51:10.099Z,5.70
2018-11-10T06:53:38.603Z,5.58
2018-11-10T06:56:06.815Z,4.67
2018-11-10T06:58:35.030Z,3.35
2018-11-10T07:01:03.258Z,3.52
2018-11-10T07:03:31.716Z,7.37
2018-11-10T07:05:59.943Z,2.42
2018-11-10T07:08:28.241Z,2.40
2018-11-10T07:10:56.488Z,3.72
2018-11-10T07:13:25.178Z,2.37
2018-11-10T07:15:53.550Z,5.97
2018-11-10T07:18:21.755Z,3.47
2018-11-10T07:20:50.389Z,10.13
2018-11-10T07:23:19.222Z,5.75
2018-11-10T07:25:47.690Z,10.18
2018-11-10T07:28:16.015Z,21.57
2018-11-10T07:30:44.232Z,7.00
2018-11-10T07:33:12.438Z,11.97
2018-11-10T07:35:40.746Z,7.25
2018-11-10T07:38:09.218Z,7.62
2018-11-10T07:40:37.450Z,10.35
2018-11-10T07:43:05.900Z,16.55
2018-11-10T07:45:34.031Z,12.23
2018-11-10T07:48:02.590Z,4.65
2018-11-10T07:50:30.896Z,2.90
2018-11-10T07:52:59.623Z,3.92
2018-11-10T07:55:28.267Z,2.75
2018-11-10T07:57:56.734Z,6.55
2018-11-10T08:00:24.922Z,1.67
2018-11-10T08:02:53.122Z,2.92
2018-11-10T08:05:21.326Z,8.78
2018-11-10T08:07:49.530Z,13.32
2018-11-10T08:10:17.756Z,5.72
2018-11-10T08:12:45.968Z,16.00
2018-11-10T08:15:15.429Z,10.63
2018-11-10T08:17:43.638Z,7.58
2018-11-10T08:20:13.010Z,3.85
2018-11-10T08:22:41.242Z,8.20
2018-11-10T08:25:11.375Z,8.80
2018-11-10T08:27:39.506Z,8.95
2018-11-10T08:30:09.083Z,11.22
2018-11-10T08:32:37.383Z,8.63
2018-11-10T08:35:06.183Z,7.08
2018-11-10T08:37:34.407Z,10.38
2018-11-10T08:40:02.644Z,4.92
2018-11-10T08:42:30.876Z,6.22
2018-11-10T08:44:59.081Z,3.60
2018-11-10T08:47:27.295Z,6.60
2018-11-10T08:49:55.494Z,3.77
2018-11-10T08:52:23.695Z,2.33
2018-11-10T08:54:51.906Z,2.95
2018-11-10T08:57:20.159Z,2.83
2018-11-10T08:59:48.778Z,3.90
2018-11-10T09:02:16.982Z,3.87
2018-11-10T09:04:45.191Z,3.80
2018-11-10T09:07:13.398Z,5.85
2018-11-10T09:09:41.650Z,5.03
2018-11-10T09:12:10.189Z,4.78
2018-11-10T09:14:38.390Z,4.87
2018-11-10T09:17:06.594Z,5.28
2018-11-10T09:19:34.793Z,15.08
2018-11-10T09:22:03.033Z,20.08
2018-11-10T09:24:31.261Z,17.50
2018-11-10T09:26:59.892Z,23.15
2018-11-10T09:29:28.123Z,35.88
2018-11-10T09:31:56.350Z,25.12
2018-11-10T09:34:24.560Z,11.57
2018-11-10T09:36:52.947Z,5.00
2018-11-10T09:39:21.223Z,6.10
2018-11-10T09:41:49.451Z,7.40
2018-11-10T09:44:17.682Z,4.25
2018-11-10T09:46:45.896Z,7.12
2018-11-10T09:49:14.122Z,7.10
2018-11-10T09:51:42.339Z,5.92
2018-11-10T09:54:10.546Z,6.85
2018-11-10T09:56:38.747Z,5.03
2018-11-10T09:59:06.982Z,21.90
2018-11-10T10:01:35.388Z,18.35
2018-11-10T10:04:03.963Z,16.48
2018-11-10T10:06:32.174Z,35.28
2018-11-10T10:09:00.427Z,28.07
2018-11-10T10:11:28.620Z,10.45
2018-11-10T10:13:56.823Z,9.88
2018-11-10T10:16:25.130Z,8.68
2018-11-10T10:18:53.276Z,9.55
2018-11-10T10:21:21.499Z,5.90
2018-11-10T10:23:49.778Z,5.65
2018-11-10T10:26:17.982Z,6.97
2018-11-10T10:28:46.211Z,5.55
2018-11-10T10:31:14.415Z,7.47
2018-11-10T10:33:42.634Z,5.25
2018-11-10T10:36:10.848Z,7.42
2018-11-10T10:38:39.057Z,8.80
2018-11-10T10:41:07.266Z,4.28
2018-11-10T10:43:35.474Z,6.65
2018-11-10T10:46:03.686Z,9.10
2018-11-10T10:48:31.915Z,3.50
2018-11-10T10:51:00.118Z,6.53
2018-11-10T10:53:28.338Z,3.58
2018-11-10T10:55:56.549Z,6.25
2018-11-10T10:58:24.771Z,3.40
2018-11-10T11:00:58.442Z,5.75
2018-11-10T11:05:35.155Z,5.83
2018-11-10T11:08:03.358Z,10.13
2018-11-10T11:10:31.550Z,3.98
2018-11-10T11:13:00.614Z,3.80
2018-11-10T11:15:28.966Z,3.87
2018-11-10T11:17:57.070Z,5.08
2018-11-10T11:20:25.274Z,3.12
2018-11-10T11:22:53.474Z,5.50
2018-11-10T11:25:21.698Z,4.12
2018-11-10T11:27:49.894Z,4.08
2018-11-10T11:30:18.099Z,3.50
2018-11-10T11:32:46.311Z,7.67
2018-11-10T11:35:14.722Z,4.58
2018-11-10T11:37:43.131Z,5.35
2018-11-10T11:40:13.286Z,2.67
2018-11-10T11:42:41.683Z,2.33
2018-11-10T11:45:10.714Z,3.00
2018-11-10T11:47:39.308Z,6.92
2018-11-10T11:50:08.610Z,9.93
2018-11-10T11:52:37.475Z,5.85
2018-11-10T11:55:06.394Z,3.05
2018-11-10T11:57:35.268Z,2.95
2018-11-10T12:00:03.507Z,3.75
2018-11-10T12:02:31.710Z,4.15
2018-11-10T12:04:59.963Z,2.67
2018-11-10T12:07:28.179Z,3.35
2018-11-10T12:09:56.406Z,6.53
2018-11-10T12:12:24.603Z,5.05
2018-11-10T12:14:52.926Z,5.70
2018-11-10T12:17:21.674Z,2.87
2018-11-10T12:19:49.870Z,3.30
2018-11-10T12:22:18.095Z,2.60
2018-11-10T12:24:46.316Z,5.75
2018-11-10T12:27:14.538Z,3.62
2018-11-10T12:29:42.748Z,3.50
2018-11-10T12:32:10.950Z,13.62
2018-11-10T12:34:39.157Z,4.75
2018-11-10T12:37:07.391Z,9.00
2018-11-10T12:39:35.592Z,8.63
2018-11-10T12:42:03.798Z,4.33
2018-11-10T12:44:32.302Z,4.67
2018-11-10T12:47:00.507Z,6.50
2018-11-10T12:49:28.722Z,2.80
2018-11-10T12:51:56.931Z,5.65
2018-11-10T12:54:25.143Z,3.20
2018-11-10T12:56:53.350Z,5.22
2018-11-10T12:59:21.565Z,16.80
2018-11-10T13:01:49.770Z,4.60
2018-11-10T13:04:17.975Z,4.80
2018-11-10T13:06:46.266Z,9.03
2018-11-10T13:09:14.479Z,4.90
2018-11-10T13:11:42.808Z,9.35
2018-11-10T13:14:11.466Z,6.37
2018-11-10T13:16:39.996Z,6.30
2018-11-10T13:19:09.489Z,9.73
2018-11-10T13:21:38.119Z,7.40
2018-11-10T13:24:06.340Z,5.60
2018-11-10T13:26:34.559Z,7.95
2018-11-10T13:29:02.779Z,5.72
2018-11-10T13:31:31.078Z,5.03
2018-11-10T13:33:59.243Z,6.40
2018-11-10T13:36:27.462Z,4.33
2018-11-10T13:38:55.842Z,4.85
2018-11-10T13:41:24.055Z,4.00
2018-11-10T13:43:52.325Z,4.33
2018-11-10T13:46:20.499Z,6.65
2018-11-10T13:48:48.710Z,4.70
2018-11-10T13:51:17.179Z,4.10
2018-11-10T13:53:45.187Z,3.98
2018-11-10T13:56:13.422Z,4.97
2018-11-10T13:58:41.618Z,8.45
2018-11-10T14:01:09.826Z,6.37
2018-11-10T14:03:38.034Z,5.83
2018-11-10T14:06:06.306Z,4.87
2018-11-10T14:08:34.482Z,6.40
2018-11-10T14:11:02.702Z,7.83
2018-11-10T14:13:30.906Z,8.48
2018-11-10T14:15:59.159Z,5.53
2018-11-10T14:18:27.466Z,10.93
2018-11-10T14:20:55.674Z,8.65
2018-11-10T14:23:23.929Z,4.55
2018-11-10T14:25:52.130Z,4.42
2018-11-10T14:28:20.331Z,5.22
2018-11-10T14:30:48.543Z,6.65
2018-11-10T14:33:16.754Z,5.80
2018-11-10T14:35:44.962Z,5.60
2018-11-10T14:38:13.177Z,8.03
2018-11-10T14:40:41.374Z,5.58
2018-11-10T14:43:09.774Z,7.03
2018-11-10T14:45:38.011Z,4.65
2018-11-10T14:48:06.258Z,4.65
2018-11-10T14:50:34.450Z,7.12
2018-11-10T14:53:02.807Z,4.87
2018-11-10T14:55:30.891Z,8.93
2018-11-10T14:57:59.094Z,7.33
2018-11-10T15:00:28.770Z,10.08
2018-11-10T15:02:56.980Z,8.50
2018-11-10T15:05:25.223Z,7.37
2018-11-10T15:07:53.430Z,10.70
2018-11-10T15:10:21.663Z,27.25
2018-11-10T15:12:49.885Z,16.25
2018-11-10T15:15:18.827Z,13.75
2018-11-10T15:17:47.179Z,13.32
2018-11-10T15:20:16.636Z,21.07
2018-11-10T15:22:44.872Z,21.17
2018-11-10T15:25:15.495Z,16.67
2018-11-10T15:27:43.686Z,11.05
2018-11-10T15:30:15.701Z,11.50
2018-11-10T15:32:44.737Z,11.65
2018-11-10T15:35:14.046Z,11.28
2018-11-10T15:37:43.486Z,12.95
2018-11-10T15:40:12.498Z,12.73
2018-11-10T15:42:40.774Z,17.45
2018-11-10T15:45:10.130Z,14.38
2018-11-10T15:47:38.503Z,19.48
2018-11-10T15:50:07.259Z,19.05
2018-11-10T15:52:35.675Z,15.20
2018-11-10T15:55:04.362Z,12.80
2018-11-10T15:57:32.559Z,14.47
2018-11-10T16:00:00.772Z,18.23
2018-11-10T16:02:28.980Z,16.40
2018-11-10T16:04:57.197Z,17.75
2018-11-10T16:07:25.423Z,21.30
2018-11-10T16:09:53.652Z,20.68
2018-11-10T16:12:21.914Z,20.90
2018-11-10T16:14:50.119Z,26.48
2018-11-10T16:17:18.324Z,20.52
2018-11-10T16:19:46.565Z,20.32
2018-11-10T16:22:14.800Z,22.27
2018-11-10T16:24:43.011Z,28.60
2018-11-10T16:27:11.226Z,25.57
2018-11-10T16:29:39.441Z,30.10
2018-11-10T16:32:07.759Z,28.90
2018-11-10T16:34:36.002Z,23.60
2018-11-10T16:37:04.470Z,23.35
2018-11-10T16:39:32.675Z,24.05
2018-11-10T16:42:00.894Z,24.25
2018-11-10T16:44:29.112Z,24.30
2018-11-10T16:46:57.356Z,21.20
2018-11-10T16:49:25.845Z,24.57
2018-11-10T16:51:54.063Z,25.05
2018-11-10T16:54:22.328Z,21.17
2018-11-10T16:56:50.618Z,24.15
2018-11-10T16:59:18.859Z,23.60
2018-11-10T17:01:47.075Z,24.35
2018-11-10T17:04:15.863Z,22.07
2018-11-10T17:06:44.101Z,22.50
2018-11-10T17:09:13.478Z,31.70
2018-11-10T17:11:41.734Z,31.23
2018-11-10T17:14:11.446Z,26.35
2018-11-10T17:16:40.406Z,27.00
2018-11-10T17:19:09.669Z,25.68
2018-11-10T17:21:37.969Z,28.07
2018-11-10T17:24:06.138Z,21.75
2018-11-10T17:26:34.442Z,24.25
2018-11-10T17:29:02.679Z,26.60
2018-11-10T17:31:30.894Z,32.13
2018-11-10T17:33:59.694Z,27.42
2018-11-10T17:36:28.387Z,25.77
2018-11-10T17:38:56.644Z,25.95
2018-11-10T17:41:25.352Z,28.45
2018-11-10T17:43:53.566Z,29.48
2018-11-10T17:46:21.772Z,32.40
2018-11-10T17:48:50.002Z,25.50
2018-11-10T17:51:18.222Z,26.85
2018-11-10T17:53:46.787Z,28.15
2018-11-10T17:56:15.013Z,27.77
2018-11-10T17:58:43.311Z,28.00
2018-11-10T18:01:11.506Z,28.85
2018-11-10T18:03:39.926Z,34.03
2018-11-10T18:06:08.104Z,32.25
2018-11-10T18:08:36.318Z,31.93
2018-11-10T18:11:04.839Z,22.10
2018-11-10T18:13:33.045Z,27.95
2018-11-10T18:16:01.242Z,29.75
2018-11-10T18:18:29.476Z,33.05
2018-11-10T18:20:57.781Z,32.28
2018-11-10T18:23:25.986Z,35.65
2018-11-10T18:25:54.219Z,32.05
2018-11-10T18:28:22.448Z,37.95
2018-11-10T18:30:50.663Z,36.65
2018-11-10T18:33:18.890Z,35.03
2018-11-10T18:35:47.130Z,30.68
2018-11-10T18:38:15.666Z,32.20
2018-11-10T18:40:43.871Z,27.52
2018-11-10T18:43:12.097Z,37.53
2018-11-10T18:45:40.311Z,32.45
2018-11-10T18:48:08.531Z,32.48
2018-11-10T18:50:36.886Z,33.42
2018-11-10T18:53:05.166Z,37.23
2018-11-10T18:55:33.378Z,41.08
2018-11-10T18:58:01.655Z,28.83
2018-11-10T19:00:29.834Z,38.00
2018-11-10T19:02:58.051Z,33.15
2018-11-10T19:05:26.278Z,45.28
2018-11-10T19:07:54.490Z,33.95
2018-11-10T19:10:22.716Z,45.92
2018-11-10T19:12:50.996Z,35.08
2018-11-10T19:15:20.655Z,32.13
2018-11-10T19:17:48.990Z,32.00
2018-11-10T19:20:18.033Z,38.73
2018-11-10T19:22:46.312Z,26.50
2018-11-10T19:25:15.051Z,33.53
2018-11-10T19:27:43.271Z,28.02
2018-11-10T19:30:14.871Z,36.93
2018-11-10T19:32:43.552Z,34.85
2018-11-10T19:35:11.944Z,33.95
2018-11-10T19:37:40.150Z,36.33
2018-11-10T19:40:08.955Z,52.27
2018-11-10T19:42:37.235Z,36.83
2018-11-10T19:45:06.022Z,35.13
2018-11-10T19:47:34.239Z,30.40
2018-11-10T19:50:02.463Z,30.25
2018-11-10T19:52:30.696Z,30.88
2018-11-10T19:54:58.902Z,32.60
2018-11-10T19:57:27.123Z,36.75
2018-11-10T19:59:55.338Z,28.32
2018-11-10T20:02:23.546Z,41.15
2018-11-10T20:04:51.770Z,27.32
2018-11-10T20:07:20.036Z,33.30
2018-11-10T20:09:48.263Z,34.10
2018-11-10T20:12:16.490Z,29.02
2018-11-10T20:14:44.759Z,28.15
2018-11-10T20:17:12.975Z,30.25
2018-11-10T20:19:41.288Z,35.03
2018-11-10T20:22:09.460Z,29.40
2018-11-10T20:24:37.670Z,32.03
2018-11-10T20:27:05.900Z,31.85
2018-11-10T20:29:34.112Z,32.53
2018-11-10T20:32:02.329Z,31.70
2018-11-10T20:34:30.560Z,27.32
2018-11-10T20:36:58.778Z,27.55
2018-11-10T20:39:26.986Z,26.62
2018-11-10T20:41:55.198Z,36.30
2018-11-10T20:44:23.419Z,32.38
2018-11-10T20:46:51.654Z,31.73
2018-11-10T20:49:19.877Z,27.10
2018-11-10T20:51:48.102Z,29.75
2018-11-10T20:54:16.319Z,31.75
2018-11-10T20:56:44.528Z,31.77
2018-11-10T20:59:12.741Z,39.95
2018-11-10T21:01:40.951Z,45.05
2018-11-10T21:04:09.189Z,37.17
2018-11-10T21:06:37.879Z,41.10
2018-11-10T21:09:08.003Z,40.67
2018-11-10T21:11:36.253Z,35.08
2018-11-10T21:14:04.503Z,37.15
2018-11-10T21:16:32.755Z,39.30
2018-11-10T21:19:00.960Z,41.77
2018-11-10T21:21:29.174Z,33.48
2018-11-10T21:23:57.410Z,32.88
2018-11-10T21:26:25.635Z,33.18
2018-11-10T21:28:53.908Z,33.50
2018-11-10T21:31:22.100Z,33.20
2018-11-10T21:33:50.332Z,34.40
2018-11-10T21:36:18.551Z,32.63
2018-11-10T21:38:46.757Z,37.10
2018-11-10T21:41:15.131Z,37.60
2018-11-10T21:43:43.556Z,37.03
2018-11-10T21:46:11.723Z,34.23
2018-11-10T21:48:39.930Z,37.33
2018-11-10T21:51:08.140Z,32.80
2018-11-10T21:53:36.351Z,33.45
2018-11-10T21:56:04.830Z,34.25
2018-11-10T21:58:33.038Z,37.30
2018-11-10T22:01:01.258Z,29.20
2018-11-10T22:03:29.469Z,38.92
2018-11-10T22:05:57.675Z,33.02
2018-11-10T22:08:26.090Z,27.32
2018-11-10T22:10:54.298Z,34.80
2018-11-10T22:13:22.532Z,36.50
2018-11-10T22:15:50.806Z,47.55
2018-11-10T22:18:19.051Z,41.18
2018-11-10T22:20:47.291Z,42.25
2018-11-10T22:23:15.520Z,37.67
2018-11-10T22:25:43.734Z,33.60
2018-11-10T22:28:11.942Z,40.30
2018-11-10T22:30:40.163Z,49.38
2018-11-10T22:33:08.426Z,36.68
2018-11-10T22:35:37.050Z,33.42
2018-11-10T22:38:05.298Z,43.13
2018-11-10T22:40:33.530Z,34.33
2018-11-10T22:43:01.763Z,35.58
2018-11-10T22:45:29.959Z,34.95
2018-11-10T22:47:58.215Z,30.20
2018-11-10T22:50:26.402Z,29.27
2018-11-10T22:52:54.597Z,34.98
2018-11-10T22:55:22.844Z,46.75
2018-11-10T22:57:51.042Z,47.83
2018-11-10T23:00:25.266Z,39.35
2018-11-10T23:02:55.554Z,39.05
2018-11-10T23:05:24.346Z,38.65
2018-11-10T23:07:52.558Z,40.28
2018-11-10T23:10:21.052Z,28.73
2018-11-10T23:12:50.750Z,35.58
2018-11-10T23:15:18.954Z,33.70
2018-11-10T23:17:47.167Z,35.75
2018-11-10T23:20:17.652Z,42.05
2018-11-10T23:22:45.909Z,30.68
2018-11-10T23:25:15.427Z,36.77
2018-11-10T23:27:43.654Z,30.17
2018-11-10T23:30:14.057Z,25.68
2018-11-10T23:32:42.327Z,30.15
2018-11-10T23:35:11.402Z,32.33
2018-11-10T23:37:40.386Z,36.77
2018-11-10T23:40:09.722Z,42.85
2018-11-10T23:42:38.593Z,36.95
2018-11-10T23:45:07.024Z,34.00
2018-11-10T23:47:35.447Z,32.35
2018-11-10T23:50:03.713Z,28.23
2018-11-10T23:52:31.926Z,24.37
2018-11-10T23:55:00.139Z,32.80
2018-11-10T23:57:28.354Z,21.33
2018-11-10T23:59:56.555Z,29.07
